Time;durP1;ratioP1;P1;durP2;ratioP2;P2;SDS_P1;SDS_P2;PMS_P1;PMS_P2;Temp;Humidity;BMP_temperature;BMP_pressure;BME280_temperature;BME280_humidity;BME280_pressure;Samples;Min_cycle;Max_cycle;Signal;HPM_P1;HPM_P2
2022/04/19 00:00:21;;;;;;;;;;;20.30;34.10;;;;;;5066395;28;20358;-47
2022/04/19 00:02:48;;;;;;;;;;;20.30;34.10;;;;;;5058822;28;20392;-49
2022/04/19 00:05:14;;;;;;;;;;;20.30;34.10;;;;;;5071798;28;20457;-49
2022/04/19 00:07:42;;;;;;;;;;;20.30;34.10;;;;;;5067318;28;19925;-51
2022/04/19 00:10:10;;;;;;;;;;;20.30;34.20;;;;;;5066410;28;19921;-50
2022/04/19 00:12:37;;;;;;;;;;;20.30;34.20;;;;;;5063405;28;19960;-47
2022/04/19 00:15:04;;;;;;;;;;;20.30;34.20;;;;;;5074962;28;19921;-50
2022/04/19 00:17:31;;;;;;;;;;;20.30;34.20;;;;;;5062562;28;20019;-51
2022/04/19 00:19:57;;;;;;;;;;;20.30;34.20;;;;;;5055697;28;20015;-46
2022/04/19 00:22:24;;;;;;;;;;;20.30;34.20;;;;;;5067520;28;19925;-48
2022/04/19 00:24:50;;;;;;;;;;;20.30;34.20;;;;;;5078155;28;19990;-47
2022/04/19 00:27:19;;;;;;;;;;;20.30;34.30;;;;;;5074754;28;19920;-47
2022/04/19 00:29:47;;;;;;;;;;;20.30;34.20;;;;;;5087203;28;19924;-45
2022/04/19 00:32:15;;;;;;;;;;;20.30;34.20;;;;;;5069634;28;19920;-50
2022/04/19 00:34:41;;;;;;;;;;;20.30;34.20;;;;;;5064643;28;19948;-49
2022/04/19 00:37:08;;;;;;;;;;;20.30;34.20;;;;;;5062062;28;20311;-51
2022/04/19 00:39:35;;;;;;;;;;;20.30;34.20;;;;;;5060712;28;19947;-48
2022/04/19 00:42:02;;;;;;;;;;;20.30;34.20;;;;;;5059848;28;20333;-48
2022/04/19 00:44:30;;;;;;;;;;;20.30;34.30;;;;;;5071848;28;19951;-48
2022/04/19 00:46:57;;;;;;;;;;;20.30;34.30;;;;;;5070070;28;20439;-48
2022/04/19 00:49:24;;;;;;;;;;;20.30;34.30;;;;;;5071139;28;19924;-49
2022/04/19 00:51:56;;;;;;;;;;;20.40;34.40;;;;;;5071638;28;20380;-44
2022/04/19 00:54:23;;;;;;;;;;;20.30;34.30;;;;;;5059704;28;19981;-46
2022/04/19 00:56:49;;;;;;;;;;;20.30;34.30;;;;;;5064834;28;20369;-48
2022/04/19 00:59:20;;;;;;;;;;;20.30;34.30;;;;;;5052092;28;19927;-51
2022/04/19 01:01:49;;;;;;;;;;;20.30;34.30;;;;;;5070205;28;19929;-46
2022/04/19 01:04:15;;;;;;;;;;;20.30;34.30;;;;;;5076294;28;19974;-48
2022/04/19 01:06:42;;;;;;;;;;;20.30;34.30;;;;;;5066275;28;20015;-49
2022/04/19 01:09:09;;;;;;;;;;;20.30;34.30;;;;;;5071446;28;19974;-45
2022/04/19 01:14:20;;;;;;;;;;;20.40;34.40;;;;;;5069321;28;20014;-48
2022/04/19 01:16:48;;;;;;;;;;;20.30;34.30;;;;;;5051303;28;19925;-48
2022/04/19 01:19:15;;;;;;;;;;;20.30;34.30;;;;;;5052765;28;20353;-47
2022/04/19 01:21:48;;;;;;;;;;;20.30;34.30;;;;;;5058620;28;19931;-47
2022/04/19 01:24:15;;;;;;;;;;;20.30;34.40;;;;;;5054020;28;19975;-50
2022/04/19 01:26:42;;;;;;;;;;;20.30;34.40;;;;;;5075740;28;19934;-49
2022/04/19 01:29:09;;;;;;;;;;;20.40;34.50;;;;;;5059362;28;19929;-48
2022/04/19 01:31:36;;;;;;;;;;;20.30;34.40;;;;;;5061497;28;20091;-48
2022/04/19 01:34:03;;;;;;;;;;;20.30;34.40;;;;;;5065054;28;20255;-52
2022/04/19 01:36:30;;;;;;;;;;;20.30;34.40;;;;;;5068910;28;19932;-48
2022/04/19 01:38:58;;;;;;;;;;;20.40;34.50;;;;;;5080509;28;19974;-46
2022/04/19 01:41:25;;;;;;;;;;;20.30;34.40;;;;;;5056402;28;20552;-50
2022/04/19 01:43:52;;;;;;;;;;;20.40;34.50;;;;;;5066380;28;19920;-52
2022/04/19 01:46:18;;;;;;;;;;;20.40;34.50;;;;;;5069126;28;19928;-45
2022/04/19 01:48:45;;;;;;;;;;;20.40;34.50;;;;;;5058499;28;19928;-49
2022/04/19 01:51:12;;;;;;;;;;;20.40;34.50;;;;;;5068576;28;20015;-51
2022/04/19 01:53:40;;;;;;;;;;;20.30;34.40;;;;;;5054912;28;20024;-48
2022/04/19 01:56:08;;;;;;;;;;;20.30;34.50;;;;;;5073289;28;19946;-48
2022/04/19 01:58:35;;;;;;;;;;;20.40;34.50;;;;;;5066194;28;19974;-51
2022/04/19 02:01:02;;;;;;;;;;;20.40;34.50;;;;;;5064542;28;19920;-48
2022/04/19 02:03:28;;;;;;;;;;;20.40;34.50;;;;;;5070526;28;19921;-48
2022/04/19 02:05:55;;;;;;;;;;;20.40;34.60;;;;;;5066420;28;20225;-49
2022/04/19 02:08:21;;;;;;;;;;;20.40;34.60;;;;;;5073352;28;20007;-51
2022/04/19 02:10:48;;;;;;;;;;;20.40;34.60;;;;;;5088250;28;19969;-47
2022/04/19 02:13:17;;;;;;;;;;;20.40;34.60;;;;;;5072023;28;19980;-48
2022/04/19 02:15:46;;;;;;;;;;;20.40;34.60;;;;;;5088365;28;19990;-48
2022/04/19 02:18:12;;;;;;;;;;;20.40;34.60;;;;;;5066901;28;19956;-50
2022/04/19 02:20:39;;;;;;;;;;;20.40;34.60;;;;;;5058914;28;19924;-46
2022/04/19 02:23:06;;;;;;;;;;;20.40;34.60;;;;;;5065689;28;19927;-51
2022/04/19 02:25:33;;;;;;;;;;;20.30;34.50;;;;;;5070444;28;19920;-49
2022/04/19 02:27:59;;;;;;;;;;;20.40;34.60;;;;;;5064424;28;20402;-46
2022/04/19 02:30:27;;;;;;;;;;;20.40;34.60;;;;;;5060723;28;20335;-49
2022/04/19 02:32:55;;;;;;;;;;;20.40;34.70;;;;;;5071950;28;19970;-49
2022/04/19 02:35:23;;;;;;;;;;;20.40;34.70;;;;;;5059590;28;19920;-52
2022/04/19 02:37:50;;;;;;;;;;;20.40;34.70;;;;;;5067379;28;20026;-46
2022/04/19 02:40:17;;;;;;;;;;;20.30;34.60;;;;;;5071395;28;19987;-49
2022/04/19 02:42:44;;;;;;;;;;;20.30;34.60;;;;;;5088293;28;19921;-47
2022/04/19 02:45:12;;;;;;;;;;;20.40;34.70;;;;;;5071124;28;19920;-52
2022/04/19 02:47:41;;;;;;;;;;;20.40;34.70;;;;;;5082742;28;20044;-51
2022/04/19 02:50:08;;;;;;;;;;;20.40;34.70;;;;;;5071022;28;19927;-51
2022/04/19 02:52:34;;;;;;;;;;;20.40;34.70;;;;;;5070560;28;20377;-48
2022/04/19 02:55:01;;;;;;;;;;;20.40;34.70;;;;;;5071406;28;19927;-51
2022/04/19 02:57:28;;;;;;;;;;;20.40;34.70;;;;;;5071596;28;20224;-47
2022/04/19 02:59:54;;;;;;;;;;;20.40;34.80;;;;;;5071079;28;20381;-51
2022/04/19 03:02:21;;;;;;;;;;;20.40;34.70;;;;;;5071433;28;19930;-47
2022/04/19 03:04:49;;;;;;;;;;;20.40;34.80;;;;;;5087387;28;19982;-47
2022/04/19 03:07:16;;;;;;;;;;;20.40;34.80;;;;;;5087845;28;20334;-46
2022/04/19 03:09:43;;;;;;;;;;;20.40;34.80;;;;;;5072369;28;19974;-49
2022/04/19 03:12:11;;;;;;;;;;;20.40;34.80;;;;;;5088266;28;20019;-51
2022/04/19 03:14:38;;;;;;;;;;;20.40;34.80;;;;;;5069168;28;19958;-46
2022/04/19 03:17:05;;;;;;;;;;;20.40;34.80;;;;;;5071653;28;20276;-49
2022/04/19 03:19:32;;;;;;;;;;;20.40;34.80;;;;;;5070807;28;19967;-46
2022/04/19 03:22:00;;;;;;;;;;;20.40;34.80;;;;;;5071516;28;19921;-47
2022/04/19 03:29:56;;;;;;;;;;;20.40;34.80;;;;;;5070774;28;19933;-46
2022/04/19 03:32:23;;;;;;;;;;;20.40;34.80;;;;;;5058153;28;845997;-49
2022/04/19 03:34:50;;;;;;;;;;;20.40;34.80;;;;;;5068356;28;19946;-46
2022/04/19 03:37:19;;;;;;;;;;;20.40;34.80;;;;;;5088792;28;19924;-51
2022/04/19 03:39:45;;;;;;;;;;;20.40;34.80;;;;;;5072168;28;20377;-49
2022/04/19 03:42:12;;;;;;;;;;;20.40;34.80;;;;;;5084216;28;19971;-49
2022/04/19 03:44:39;;;;;;;;;;;20.40;34.80;;;;;;5090177;28;19924;-53
2022/04/19 03:47:09;;;;;;;;;;;20.40;34.80;;;;;;5072569;28;19986;-47
2022/04/19 03:49:36;;;;;;;;;;;20.40;34.80;;;;;;5059746;28;20345;-49
2022/04/19 03:52:03;;;;;;;;;;;20.40;34.80;;;;;;5047961;28;19921;-49
2022/04/19 03:54:31;;;;;;;;;;;20.40;34.80;;;;;;5050848;28;20011;-46
2022/04/19 03:56:58;;;;;;;;;;;20.40;34.80;;;;;;5083649;28;20301;-48
2022/04/19 03:59:25;;;;;;;;;;;20.40;34.80;;;;;;5058813;28;19928;-46
2022/04/19 04:01:51;;;;;;;;;;;20.40;34.90;;;;;;5065262;28;20007;-46
2022/04/19 04:04:18;;;;;;;;;;;20.40;34.90;;;;;;5069532;28;19921;-47
2022/04/19 04:06:46;;;;;;;;;;;20.40;34.90;;;;;;5063712;28;19924;-47
2022/04/19 04:09:13;;;;;;;;;;;20.40;34.90;;;;;;5070687;28;19931;-46
2022/04/19 04:11:41;;;;;;;;;;;20.40;34.90;;;;;;5087587;28;20403;-46
2022/04/19 04:14:08;;;;;;;;;;;20.40;34.90;;;;;;5076608;28;20366;-53
2022/04/19 04:16:35;;;;;;;;;;;20.40;34.80;;;;;;5058752;28;20286;-47
2022/04/19 04:19:01;;;;;;;;;;;20.40;34.90;;;;;;5072455;28;19920;-48
2022/04/19 04:21:28;;;;;;;;;;;20.40;34.90;;;;;;5069521;28;19920;-48
2022/04/19 04:23:55;;;;;;;;;;;20.40;34.90;;;;;;5071013;28;20224;-48
2022/04/19 04:26:22;;;;;;;;;;;20.40;34.90;;;;;;5054104;28;20691;-49
2022/04/19 04:28:50;;;;;;;;;;;20.40;34.90;;;;;;5070104;28;20394;-46
2022/04/19 04:31:17;;;;;;;;;;;20.40;34.90;;;;;;5079956;28;19924;-52
2022/04/19 04:33:44;;;;;;;;;;;20.40;34.90;;;;;;5070989;28;20365;-52
2022/04/19 04:36:11;;;;;;;;;;;20.40;34.90;;;;;;5069379;28;19935;-49
2022/04/19 04:38:39;;;;;;;;;;;20.40;35.00;;;;;;5068322;28;20479;-51
2022/04/19 04:41:06;;;;;;;;;;;20.40;35.00;;;;;;5054258;28;19960;-49
2022/04/19 04:43:33;;;;;;;;;;;20.40;35.00;;;;;;5078099;28;19921;-47
2022/04/19 04:51:29;;;;;;;;;;;20.40;35.60;;;;;;5054491;28;19931;-46
2022/04/19 04:53:56;;;;;;;;;;;20.40;35.10;;;;;;5072250;28;20022;-48
2022/04/19 04:56:23;;;;;;;;;;;20.40;35.10;;;;;;5070289;28;20015;-47
2022/04/19 04:58:50;;;;;;;;;;;20.40;35.00;;;;;;5067357;28;19921;-46
2022/04/19 05:01:18;;;;;;;;;;;20.40;35.00;;;;;;5059733;28;19924;-47
2022/04/19 05:03:45;;;;;;;;;;;20.40;35.10;;;;;;5067306;28;19921;-51
2022/04/19 05:06:12;;;;;;;;;;;20.40;35.10;;;;;;5070390;28;19952;-50
2022/04/19 05:08:39;;;;;;;;;;;20.40;35.10;;;;;;5086061;28;19928;-45
2022/04/19 05:11:05;;;;;;;;;;;20.40;35.00;;;;;;5069970;28;19974;-50
2022/04/19 05:13:32;;;;;;;;;;;20.40;35.10;;;;;;5068619;28;19954;-51
2022/04/19 05:15:59;;;;;;;;;;;20.40;35.00;;;;;;5066009;28;19932;-50
2022/04/19 05:18:27;;;;;;;;;;;20.40;35.10;;;;;;5068454;28;20329;-48
2022/04/19 05:20:54;;;;;;;;;;;20.40;35.10;;;;;;5069486;28;19925;-48
2022/04/19 05:23:21;;;;;;;;;;;20.40;35.10;;;;;;5069209;28;19921;-45
2022/04/19 05:25:48;;;;;;;;;;;20.40;35.10;;;;;;5064780;28;19920;-46
2022/04/19 05:28:15;;;;;;;;;;;20.40;35.10;;;;;;5068489;28;20285;-46
2022/04/19 05:30:41;;;;;;;;;;;20.40;35.10;;;;;;5069286;28;19932;-49
2022/04/19 05:33:10;;;;;;;;;;;20.40;35.10;;;;;;5069991;28;19962;-49
2022/04/19 05:35:39;;;;;;;;;;;20.40;35.20;;;;;;5068028;28;20271;-47
2022/04/19 05:38:05;;;;;;;;;;;20.40;35.20;;;;;;5085772;28;20027;-48
2022/04/19 05:40:32;;;;;;;;;;;20.40;35.20;;;;;;5070443;28;20311;-51
2022/04/19 05:42:59;;;;;;;;;;;20.40;35.20;;;;;;5068642;28;19956;-48
2022/04/19 05:45:26;;;;;;;;;;;20.40;35.20;;;;;;5068529;28;19920;-51
2022/04/19 05:47:53;;;;;;;;;;;20.40;35.20;;;;;;5069110;28;20317;-46
2022/04/19 05:50:20;;;;;;;;;;;20.40;35.20;;;;;;5085704;28;19959;-53
2022/04/19 05:52:48;;;;;;;;;;;20.40;35.20;;;;;;5085934;28;20338;-45
2022/04/19 05:55:15;;;;;;;;;;;20.40;35.20;;;;;;5070877;28;19921;-47
2022/04/19 05:57:41;;;;;;;;;;;20.40;35.20;;;;;;5065922;28;19924;-46
2022/04/19 06:00:08;;;;;;;;;;;20.40;35.20;;;;;;5087800;28;19920;-48
2022/04/19 06:05:19;;;;;;;;;;;20.40;35.20;;;;;;5067414;28;19932;-49
2022/04/19 06:07:46;;;;;;;;;;;20.40;35.20;;;;;;5083724;28;19928;-47
2022/04/19 06:10:15;;;;;;;;;;;20.40;35.30;;;;;;5070388;28;19927;-47
2022/04/19 06:12:42;;;;;;;;;;;20.40;35.20;;;;;;5063102;28;20463;-47
2022/04/19 06:15:10;;;;;;;;;;;20.40;35.20;;;;;;5086208;28;19920;-45
2022/04/19 06:17:38;;;;;;;;;;;20.40;35.30;;;;;;5065724;28;19974;-45
2022/04/19 06:20:05;;;;;;;;;;;20.40;35.30;;;;;;5068074;28;19920;-47
2022/04/19 06:22:32;;;;;;;;;;;20.40;35.30;;;;;;5063125;28;19928;-46
2022/04/19 06:24:59;;;;;;;;;;;20.40;35.30;;;;;;5068824;28;19938;-48
2022/04/19 06:27:27;;;;;;;;;;;20.40;35.30;;;;;;5070164;28;19999;-51
2022/04/19 06:29:56;;;;;;;;;;;20.40;35.30;;;;;;5070657;28;19920;-49
2022/04/19 06:32:23;;;;;;;;;;;20.40;35.20;;;;;;5087384;28;19924;-49
2022/04/19 06:34:49;;;;;;;;;;;20.40;35.10;;;;;;5063756;28;19947;-51
2022/04/19 06:37:16;;;;;;;;;;;20.40;34.90;;;;;;5069949;28;19924;-49
2022/04/19 06:39:44;;;;;;;;;;;20.40;34.60;;;;;;5065842;28;19927;-51
2022/04/19 06:42:11;;;;;;;;;;;20.40;34.20;;;;;;5088363;28;19958;-50
2022/04/19 06:44:39;;;;;;;;;;;20.40;32.90;;;;;;5067869;28;19962;-48
2022/04/19 06:47:07;;;;;;;;;;;20.30;32.70;;;;;;5059973;28;20015;-52
2022/04/19 06:49:33;;;;;;;;;;;20.30;32.60;;;;;;5065554;28;19936;-49
2022/04/19 06:52:00;;;;;;;;;;;20.30;32.80;;;;;;5078710;28;19925;-55
2022/04/19 06:54:27;;;;;;;;;;;20.30;32.80;;;;;;5044322;28;20082;-51
2022/04/19 06:56:54;;;;;;;;;;;20.30;32.80;;;;;;5054607;28;20465;-56
2022/04/19 06:59:21;;;;;;;;;;;20.20;32.70;;;;;;5075818;28;20363;-50
2022/04/19 07:01:50;;;;;;;;;;;20.20;32.70;;;;;;5067047;28;19967;-53
2022/04/19 07:04:16;;;;;;;;;;;20.20;32.80;;;;;;5067596;28;20062;-53
2022/04/19 07:06:43;;;;;;;;;;;20.20;32.80;;;;;;5066595;28;20400;-53
2022/04/19 07:09:10;;;;;;;;;;;20.20;32.80;;;;;;5066221;28;19936;-48
2022/04/19 07:11:37;;;;;;;;;;;20.20;32.80;;;;;;5068741;28;19946;-48
2022/04/19 07:14:04;;;;;;;;;;;20.20;32.80;;;;;;5058041;28;19931;-49
2022/04/19 07:16:30;;;;;;;;;;;20.20;32.70;;;;;;5060163;28;19967;-56
2022/04/19 07:18:58;;;;;;;;;;;20.20;32.80;;;;;;5067142;28;20011;-52
2022/04/19 07:26:54;;;;;;;;;;;20.20;32.70;;;;;;5061471;28;20391;-52
2022/04/19 07:29:21;;;;;;;;;;;20.20;32.70;;;;;;5060050;28;19971;-51
2022/04/19 07:31:48;;;;;;;;;;;20.20;32.60;;;;;;5061044;28;19920;-53
2022/04/19 07:34:16;;;;;;;;;;;20.20;32.70;;;;;;5081736;28;19920;-49
2022/04/19 07:36:43;;;;;;;;;;;20.20;32.60;;;;;;5055536;28;19924;-58
2022/04/19 07:39:10;;;;;;;;;;;20.20;32.60;;;;;;5061427;28;20011;-54
2022/04/19 07:41:37;;;;;;;;;;;20.20;32.60;;;;;;5058386;28;20333;-59
2022/04/19 07:44:04;;;;;;;;;;;20.20;32.60;;;;;;5063433;28;19928;-54
2022/04/19 07:46:31;;;;;;;;;;;20.20;32.50;;;;;;5056427;28;19982;-56
2022/04/19 07:48:58;;;;;;;;;;;20.20;32.50;;;;;;5063930;28;19932;-53
2022/04/19 07:51:26;;;;;;;;;;;20.20;32.30;;;;;;5069030;28;19928;-51
2022/04/19 07:53:53;;;;;;;;;;;20.20;32.30;;;;;;5069939;28;20031;-54
2022/04/19 07:56:20;;;;;;;;;;;20.20;32.30;;;;;;5065010;28;19924;-52
2022/04/19 07:58:47;;;;;;;;;;;20.20;32.30;;;;;;5067403;28;19929;-53
2022/04/19 08:01:14;;;;;;;;;;;20.20;32.40;;;;;;5072069;28;19952;-56
2022/04/19 08:03:41;;;;;;;;;;;20.20;32.40;;;;;;5083015;28;19978;-52
2022/04/19 08:06:08;;;;;;;;;;;20.20;32.40;;;;;;5063357;28;19925;-54
2022/04/19 08:08:37;;;;;;;;;;;20.20;32.40;;;;;;5081772;28;19967;-51
2022/04/19 08:11:04;;;;;;;;;;;20.20;32.40;;;;;;5061577;28;19924;-56
2022/04/19 08:13:31;;;;;;;;;;;20.20;32.40;;;;;;5057823;28;19921;-58
2022/04/19 08:15:57;;;;;;;;;;;20.20;32.30;;;;;;5080666;28;20007;-56
2022/04/19 08:18:24;;;;;;;;;;;20.20;32.30;;;;;;5064855;28;19921;-58
2022/04/19 08:20:51;;;;;;;;;;;20.20;32.30;;;;;;5070225;28;19942;-57
2022/04/19 08:23:18;;;;;;;;;;;20.20;32.40;;;;;;5063349;28;20026;-53
2022/04/19 08:25:46;;;;;;;;;;;20.20;32.40;;;;;;5066671;28;20011;-56
2022/04/19 08:28:13;;;;;;;;;;;20.20;32.40;;;;;;5070855;28;19928;-54
2022/04/19 08:30:40;;;;;;;;;;;20.20;32.30;;;;;;5074748;28;20328;-52
2022/04/19 08:33:07;;;;;;;;;;;20.20;32.40;;;;;;5062481;28;20408;-57
2022/04/19 08:35:33;;;;;;;;;;;20.20;32.40;;;;;;5059628;28;19927;-51
2022/04/19 08:38:00;;;;;;;;;;;20.20;32.40;;;;;;5076857;28;19920;-55
2022/04/19 08:40:27;;;;;;;;;;;20.20;32.40;;;;;;5076565;28;19925;-53
2022/04/19 08:42:57;;;;;;;;;;;20.20;32.40;;;;;;5079165;28;20362;-53
2022/04/19 08:45:24;;;;;;;;;;;20.20;32.50;;;;;;5080228;28;20016;-57
2022/04/19 08:47:50;;;;;;;;;;;20.20;32.50;;;;;;5069408;28;20392;-52
2022/04/19 08:50:17;;;;;;;;;;;20.20;32.50;;;;;;5054029;28;20259;-49
2022/04/19 08:52:44;;;;;;;;;;;20.20;32.50;;;;;;5086036;28;20285;-50
2022/04/19 08:57:57;;;;;;;;;;;20.20;32.50;;;;;;5055931;28;19939;-48
2022/04/19 09:00:24;;;;;;;;;;;20.20;32.50;;;;;;5064168;28;19920;-50
2022/04/19 09:02:51;;;;;;;;;;;20.20;32.50;;;;;;5057363;28;20044;-55
2022/04/19 09:05:19;;;;;;;;;;;20.20;32.50;;;;;;5081111;28;19969;-51
2022/04/19 09:07:46;;;;;;;;;;;20.20;32.50;;;;;;5088099;28;19927;-49
2022/04/19 09:10:14;;;;;;;;;;;20.20;32.40;;;;;;5065546;28;20297;-51
2022/04/19 09:12:54;;;;;;;;;;;20.20;32.30;;;;;;5059982;28;20017;-53
2022/04/19 09:15:23;;;;;;;;;;;20.20;32.30;;;;;;5044743;28;20063;-53
2022/04/19 09:17:50;;;;;;;;;;;20.20;32.40;;;;;;5071420;28;19920;-53
2022/04/19 09:20:19;;;;;;;;;;;20.20;32.40;;;;;;5079185;28;19921;-53
2022/04/19 09:22:48;;;;;;;;;;;20.20;32.50;;;;;;5058975;28;19927;-56
2022/04/19 09:25:16;;;;;;;;;;;20.20;32.50;;;;;;5054387;28;20374;-56
2022/04/19 09:27:43;;;;;;;;;;;20.20;32.60;;;;;;5077943;28;20430;-51
2022/04/19 09:30:16;;;;;;;;;;;20.20;32.70;;;;;;5084392;28;19982;-51
2022/04/19 09:32:51;;;;;;;;;;;20.20;32.70;;;;;;5055729;28;19920;-50
2022/04/19 09:35:18;;;;;;;;;;;20.30;32.90;;;;;;5078234;28;19920;-59
2022/04/19 09:37:47;;;;;;;;;;;20.30;32.90;;;;;;5060416;28;19960;-56
2022/04/19 09:40:14;;;;;;;;;;;20.30;32.90;;;;;;5067832;28;20007;-57
2022/04/19 09:42:41;;;;;;;;;;;20.30;32.90;;;;;;5079296;28;20357;-54
2022/04/19 09:45:08;;;;;;;;;;;20.30;32.90;;;;;;5060282;28;19955;-54
2022/04/19 09:47:46;;;;;;;;;;;20.30;35.80;;;;;;5075181;28;19920;-52
2022/04/19 09:50:15;;;;;;;;;;;20.20;37.50;;;;;;5062403;28;20004;-58
2022/04/19 09:52:48;;;;;;;;;;;20.30;38.30;;;;;;5057610;28;20009;-50
2022/04/19 09:55:15;;;;;;;;;;;20.20;38.30;;;;;;5064853;28;19920;-54
2022/04/19 09:57:45;;;;;;;;;;;20.20;38.10;;;;;;5077108;28;19920;-54
2022/04/19 10:00:13;;;;;;;;;;;20.10;39.20;;;;;;5062139;28;19956;-55
2022/04/19 10:08:21;;;;;;;;;;;20.40;38.70;;;;;;5057817;28;19921;-54
2022/04/19 10:10:47;;;;;;;;;;;20.30;38.00;;;;;;5067188;28;19920;-53
2022/04/19 10:13:14;;;;;;;;;;;20.40;38.80;;;;;;5065049;28;19925;-54
2022/04/19 10:15:42;;;;;;;;;;;20.40;36.90;;;;;;5066132;28;19921;-58
2022/04/19 10:18:10;;;;;;;;;;;20.30;45.60;;;;;;5061514;28;19929;-53
2022/04/19 10:20:39;;;;;;;;;;;20.30;33.60;;;;;;5058966;28;19925;-56
2022/04/19 10:23:08;;;;;;;;;;;20.30;32.90;;;;;;5064701;28;20266;-54
2022/04/19 10:25:40;;;;;;;;;;;20.20;32.80;;;;;;5061378;28;19920;-55
2022/04/19 10:28:07;;;;;;;;;;;20.30;32.90;;;;;;5057160;28;19926;-53
2022/04/19 10:30:35;;;;;;;;;;;20.30;32.90;;;;;;5077030;28;19925;-52
2022/04/19 10:33:02;;;;;;;;;;;20.30;32.90;;;;;;5058079;28;19921;-51
2022/04/19 10:35:29;;;;;;;;;;;20.30;33.00;;;;;;5065847;28;19959;-55
2022/04/19 10:38:16;;;;;;;;;;;20.40;33.20;;;;;;5073010;28;19969;-59
2022/04/19 10:40:50;;;;;;;;;;;20.30;33.70;;;;;;5058650;28;19920;-55
2022/04/19 10:43:17;;;;;;;;;;;20.30;34.80;;;;;;5078873;28;20019;-54
2022/04/19 10:45:46;;;;;;;;;;;20.40;35.60;;;;;;5070200;28;19931;-53
2022/04/19 10:48:14;;;;;;;;;;;20.30;35.60;;;;;;5062405;28;19921;-55
2022/04/19 10:50:44;;;;;;;;;;;20.20;36.70;;;;;;5063971;28;19970;-52
2022/04/19 10:53:10;;;;;;;;;;;20.40;37.00;;;;;;5067747;28;19974;-55
2022/04/19 10:55:38;;;;;;;;;;;20.40;37.70;;;;;;5069023;28;19955;-51
2022/04/19 10:58:12;;;;;;;;;;;20.20;36.30;;;;;;5059139;28;19932;-56
2022/04/19 11:00:43;;;;;;;;;;;20.20;36.10;;;;;;5067809;28;19927;-55
2022/04/19 11:03:10;;;;;;;;;;;20.20;35.80;;;;;;5064636;28;20010;-52
2022/04/19 11:05:39;;;;;;;;;;;20.20;35.80;;;;;;5070769;28;19921;-55
2022/04/19 11:08:25;;;;;;;;;;;20.30;36.90;;;;;;5063148;28;20011;-51
2022/04/19 11:10:52;;;;;;;;;;;20.10;36.60;;;;;;5059462;28;19920;-52
2022/04/19 11:13:20;;;;;;;;;;;20.30;32.70;;;;;;5062452;28;19928;-54
2022/04/19 11:15:57;;;;;;;;;;;20.10;31.70;;;;;;5065913;28;20333;-52
2022/04/19 11:18:24;;;;;;;;;;;20.10;31.70;;;;;;5065714;28;20265;-54
2022/04/19 11:20:51;;;;;;;;;;;20.10;31.70;;;;;;5082237;28;19925;-51
2022/04/19 11:23:19;;;;;;;;;;;20.10;31.80;;;;;;5062766;28;19920;-57
2022/04/19 11:25:46;;;;;;;;;;;20.10;31.70;;;;;;5062046;28;19931;-50
2022/04/19 11:28:24;;;;;;;;;;;20.10;31.40;;;;;;5059040;28;19920;-54
2022/04/19 11:31:10;;;;;;;;;;;20.00;31.40;;;;;;5060186;28;19920;-53
2022/04/19 11:33:36;;;;;;;;;;;20.00;31.20;;;;;;5062699;28;19932;-53
2022/04/19 11:36:04;;;;;;;;;;;20.00;31.20;;;;;;5065129;28;19936;-52
2022/04/19 11:38:31;;;;;;;;;;;20.00;31.20;;;;;;5077859;28;20008;-57
2022/04/19 11:46:46;;;;;;;;;;;19.90;31.30;;;;;;5081683;28;20022;-49
2022/04/19 11:49:39;;;;;;;;;;;19.90;31.40;;;;;;5059746;28;19974;-47
2022/04/19 11:52:11;;;;;;;;;;;19.90;31.40;;;;;;5021317;28;19973;-50
2022/04/19 11:54:39;;;;;;;;;;;19.90;31.30;;;;;;5060355;28;19921;-57
2022/04/19 11:57:06;;;;;;;;;;;19.90;31.20;;;;;;5066368;28;19946;-53
2022/04/19 11:59:35;;;;;;;;;;;19.90;31.10;;;;;;5063517;28;20032;-48
2022/04/19 12:02:02;;;;;;;;;;;19.90;31.10;;;;;;5081806;28;20301;-57
2022/04/19 12:04:29;;;;;;;;;;;19.90;31.20;;;;;;5063722;28;20281;-59
2022/04/19 12:06:58;;;;;;;;;;;19.90;31.30;;;;;;5063347;28;19920;-53
2022/04/19 12:09:24;;;;;;;;;;;19.90;31.30;;;;;;5063273;28;20263;-51
2022/04/19 12:11:52;;;;;;;;;;;19.90;31.40;;;;;;5057732;28;19928;-56
2022/04/19 12:14:25;;;;;;;;;;;19.90;31.30;;;;;;5067799;28;19927;-56
2022/04/19 12:16:57;;;;;;;;;;;19.90;31.80;;;;;;5077608;28;19927;-55
2022/04/19 12:19:34;;;;;;;;;;;19.90;30.90;;;;;;5063469;28;19919;-55
2022/04/19 12:22:01;;;;;;;;;;;19.90;30.90;;;;;;5063707;28;20369;-54
2022/04/19 12:24:28;;;;;;;;;;;19.80;30.80;;;;;;5065556;28;19920;-54
2022/04/19 12:27:04;;;;;;;;;;;19.80;30.90;;;;;;5058757;28;19932;-51
2022/04/19 12:29:30;;;;;;;;;;;19.80;30.70;;;;;;5061932;28;20058;-50
2022/04/19 12:32:00;;;;;;;;;;;19.80;30.70;;;;;;5079652;28;20095;-48
2022/04/19 12:34:31;;;;;;;;;;;19.80;30.70;;;;;;5066185;28;19929;-56
2022/04/19 12:37:04;;;;;;;;;;;19.80;30.70;;;;;;5079944;28;20398;-55
2022/04/19 12:39:31;;;;;;;;;;;19.80;30.80;;;;;;5078135;28;19996;-57
2022/04/19 12:42:04;;;;;;;;;;;19.80;31.00;;;;;;5080734;28;20431;-55
2022/04/19 12:44:34;;;;;;;;;;;19.80;31.00;;;;;;5080208;28;20007;-58
2022/04/19 12:47:09;;;;;;;;;;;19.80;31.00;;;;;;5069370;28;19939;-55
2022/04/19 12:49:42;;;;;;;;;;;19.80;30.90;;;;;;5062155;28;19929;-55
2022/04/19 12:52:09;;;;;;;;;;;19.80;30.80;;;;;;5082208;28;20008;-53
2022/04/19 12:54:36;;;;;;;;;;;19.80;30.70;;;;;;5063837;28;19935;-51
2022/04/19 12:57:23;;;;;;;;;;;19.80;30.80;;;;;;5058103;28;19924;-53
2022/04/19 12:59:50;;;;;;;;;;;19.80;30.80;;;;;;5061223;28;19977;-52
2022/04/19 13:02:19;;;;;;;;;;;19.80;30.70;;;;;;5062743;28;19978;-55
2022/04/19 13:04:46;;;;;;;;;;;19.80;30.70;;;;;;5062032;28;20368;-55
2022/04/19 13:12:41;;;;;;;;;;;19.80;30.70;;;;;;5081160;28;19974;-53
2022/04/19 13:15:27;;;;;;;;;;;19.80;30.50;;;;;;5072313;28;19921;-53
2022/04/19 13:18:12;;;;;;;;;;;19.80;30.10;;;;;;5066500;28;19940;-54
2022/04/19 13:20:40;;;;;;;;;;;19.70;30.00;;;;;;5058285;28;19967;-54
2022/04/19 13:23:27;;;;;;;;;;;19.70;30.00;;;;;;5053649;28;20081;-52
2022/04/19 13:25:54;;;;;;;;;;;19.70;29.90;;;;;;5055275;28;19927;-53
2022/04/19 13:28:25;;;;;;;;;;;19.70;29.90;;;;;;5063826;28;19974;-55
2022/04/19 13:30:52;;;;;;;;;;;19.70;29.60;;;;;;5062038;28;20401;-55
2022/04/19 13:33:19;;;;;;;;;;;19.70;29.60;;;;;;5116428;22;19940;-55
2022/04/19 13:40:51;;;;;;;;;;;19.60;29.70;;;;;;5035189;28;19935;-58
2022/04/19 13:43:18;;;;;;;;;;;19.70;29.70;;;;;;5043144;28;19925;-53
2022/04/19 13:45:44;;;;;;;;;;;19.60;29.50;;;;;;5025301;28;19939;-56
2022/04/19 13:48:11;;;;;;;;;;;19.60;29.90;;;;;;5034300;28;19984;-55
2022/04/19 13:50:38;;;;;;;;;;;19.60;29.10;;;;;;5021798;28;19933;-52
2022/04/19 13:53:05;;;;;;;;;;;19.60;28.90;;;;;;5052689;28;19929;-53
2022/04/19 13:55:32;;;;;;;;;;;19.60;29.00;;;;;;5042833;28;20297;-51
2022/04/19 13:58:00;;;;;;;;;;;19.60;28.90;;;;;;5036761;28;19933;-55
2022/04/19 14:00:28;;;;;;;;;;;19.60;29.00;;;;;;5039753;28;19935;-56
2022/04/19 14:02:55;;;;;;;;;;;19.60;29.20;;;;;;5048134;28;20027;-50
2022/04/19 14:05:22;;;;;;;;;;;19.60;29.30;;;;;;5027803;28;20413;-55
2022/04/19 14:07:48;;;;;;;;;;;19.60;29.40;;;;;;5044786;28;19984;-57
2022/04/19 14:10:15;;;;;;;;;;;19.60;29.20;;;;;;5027404;28;19983;-52
2022/04/19 14:12:42;;;;;;;;;;;19.60;29.20;;;;;;5028338;28;19939;-53
2022/04/19 14:15:10;;;;;;;;;;;19.60;29.10;;;;;;5044517;28;20035;-54
2022/04/19 14:17:37;;;;;;;;;;;19.60;29.70;;;;;;5040034;28;20006;-56
2022/04/19 14:20:04;;;;;;;;;;;19.60;29.30;;;;;;5021603;28;19925;-52
2022/04/19 14:22:33;;;;;;;;;;;19.60;29.40;;;;;;5032948;28;19940;-52
2022/04/19 14:24:59;;;;;;;;;;;19.70;29.50;;;;;;5046939;28;19925;-56
2022/04/19 14:27:26;;;;;;;;;;;19.60;29.50;;;;;;5031424;28;19924;-55
2022/04/19 14:35:23;;;;;;;;;;;19.70;29.60;;;;;;5024769;28;19929;-55
2022/04/19 14:37:50;;;;;;;;;;;19.70;29.50;;;;;;5044226;28;19925;-55
2022/04/19 14:40:16;;;;;;;;;;;19.70;29.40;;;;;;5044773;28;19971;-56
2022/04/19 14:42:44;;;;;;;;;;;19.70;29.20;;;;;;5020816;28;19929;-57
2022/04/19 14:45:12;;;;;;;;;;;19.70;29.20;;;;;;5042673;28;20024;-57
2022/04/19 14:47:41;;;;;;;;;;;19.70;29.20;;;;;;5029020;28;20019;-59
2022/04/19 14:50:08;;;;;;;;;;;19.70;29.30;;;;;;5042276;28;19925;-54
2022/04/19 14:52:34;;;;;;;;;;;19.70;29.30;;;;;;5028352;28;19929;-57
2022/04/19 14:55:00;;;;;;;;;;;19.70;29.40;;;;;;5032894;28;19936;-57
2022/04/19 14:57:27;;;;;;;;;;;19.70;29.40;;;;;;5032438;28;20052;-56
2022/04/19 14:59:54;;;;;;;;;;;19.70;29.50;;;;;;5029817;28;19928;-56
2022/04/19 15:02:22;;;;;;;;;;;19.70;29.50;;;;;;5031187;28;19928;-57
2022/04/19 15:04:51;;;;;;;;;;;19.70;29.40;;;;;;5024977;28;19932;-56
2022/04/19 15:07:17;;;;;;;;;;;19.70;29.50;;;;;;5028612;28;20008;-58
2022/04/19 15:09:45;;;;;;;;;;;19.70;29.60;;;;;;5031124;28;19971;-53
2022/04/19 15:12:13;;;;;;;;;;;19.70;29.60;;;;;;5037525;28;20278;-58